Time;durP1;ratioP1;P1;durP2;ratioP2;P2;SDS_P1;SDS_P2;PMS_P1;PMS_P2;Temp;Humidity;BMP_temperature;BMP_pressure;BME280_temperature;BME280_humidity;BME280_pressure;Samples;Min_cycle;Max_cycle;Signal;HPM_P1;HPM_P2
2023/05/26 00:01:06;;;;;;;23.80;12.50;;;12.10;48.40;;;;;;5068944;28;46428;-66
2023/05/26 00:03:31;;;;;;;21.80;11.97;;;12.10;48.70;;;;;;5064346;28;45969;-67
2023/05/26 00:05:57;;;;;;;20.40;11.90;;;12.10;48.60;;;;;;5063622;28;45891;-66
2023/05/26 00:08:23;;;;;;;21.80;11.73;;;12.10;48.70;;;;;;5069094;28;47460;-65
2023/05/26 00:10:48;;;;;;;18.80;11.00;;;12.10;50.10;;;;;;5067009;28;45864;-65
2023/05/26 00:13:14;;;;;;;19.80;12.10;;;12.00;49.00;;;;;;5066735;27;46127;-65
2023/05/26 00:15:41;;;;;;;18.83;11.20;;;11.90;49.30;;;;;;5062706;27;46358;-65
2023/05/26 00:18:07;;;;;;;16.77;10.23;;;11.90;49.40;;;;;;5065807;27;46924;-65
2023/05/26 00:20:32;;;;;;;17.63;10.30;;;11.90;49.60;;;;;;5066223;28;46383;-65
2023/05/26 00:22:58;;;;;;;17.43;11.33;;;11.80;49.50;;;;;;5066712;28;46424;-65
2023/05/26 00:25:24;;;;;;;19.27;10.47;;;11.80;49.40;;;;;;5065123;28;46401;-65
2023/05/26 00:27:50;;;;;;;19.30;9.47;;;11.80;49.60;;;;;;5063886;28;46432;-65
2023/05/26 00:30:16;;;;;;;29.57;9.97;;;11.70;49.70;;;;;;5064639;28;46541;-66
2023/05/26 00:32:42;;;;;;;16.80;9.20;;;11.60;49.80;;;;;;5062557;28;46376;-65
2023/05/26 00:35:08;;;;;;;13.23;8.90;;;11.50;50.10;;;;;;5063881;28;45806;-65
2023/05/26 00:37:33;;;;;;;19.50;9.87;;;11.40;50.20;;;;;;5065165;28;46508;-65
2023/05/26 00:39:59;;;;;;;22.43;9.23;;;11.40;50.40;;;;;;5066076;28;46619;-66
2023/05/26 00:42:25;;;;;;;20.33;9.80;;;11.30;50.30;;;;;;5067144;28;46393;-65
2023/05/26 00:44:51;;;;;;;35.63;10.03;;;11.30;50.30;;;;;;5069360;27;46384;-65
2023/05/26 00:47:18;;;;;;;24.30;10.10;;;11.20;50.50;;;;;;5070359;27;46542;-65
2023/05/26 00:49:44;;;;;;;24.03;10.83;;;11.20;50.60;;;;;;5068195;27;46485;-66
2023/05/26 00:52:11;;;;;;;23.60;10.40;;;11.10;50.50;;;;;;5064598;28;45968;-65
2023/05/26 00:54:41;;;;;;;21.60;10.73;;;11.10;50.80;;;;;;5066589;28;46349;-65
2023/05/26 00:57:08;;;;;;;17.10;10.20;;;11.10;50.80;;;;;;5068710;28;47312;-66
2023/05/26 00:59:34;;;;;;;27.73;11.13;;;11.10;50.70;;;;;;5065099;28;46448;-65
2023/05/26 01:02:00;;;;;;;20.07;10.93;;;11.10;50.80;;;;;;5063090;28;46635;-65
2023/05/26 01:04:27;;;;;;;19.60;11.30;;;11.10;50.90;;;;;;5066058;27;46431;-65
2023/05/26 01:06:55;;;;;;;24.27;11.10;;;11.10;50.90;;;;;;5061891;27;47337;-66
2023/05/26 01:09:21;;;;;;;20.40;11.73;;;11.10;50.80;;;;;;5062357;28;46396;-64
2023/05/26 01:12:13;;;;;;;22.00;10.80;;;11.10;50.90;;;;;;5065119;28;46403;-65
2023/05/26 01:15:05;;;;;;;25.40;11.00;;;11.10;51.10;;;;;;5068291;28;46363;-64
2023/05/26 01:18:13;;;;;;;20.90;9.63;;;11.00;51.30;;;;;;5064716;28;47011;-65
2023/05/26 01:20:59;;;;;;;18.20;9.17;;;10.90;51.90;;;;;;5061897;27;46354;-66
2023/05/26 01:23:40;;;;;;;17.07;11.40;;;10.90;51.70;;;;;;5067060;28;46432;-66
2023/05/26 01:26:43;;;;;;;16.13;10.00;;;10.90;51.90;;;;;;5067936;27;46493;-65
2023/05/26 01:29:12;;;;;;;16.27;9.40;;;10.90;51.90;;;;;;5069872;28;46461;-66
2023/05/26 01:31:39;;;;;;;20.40;8.60;;;10.80;51.60;;;;;;5070485;28;47493;-65
2023/05/26 01:34:05;;;;;;;14.60;9.60;;;10.80;51.50;;;;;;5065940;28;46298;-65
2023/05/26 01:36:31;;;;;;;16.23;9.07;;;10.80;51.60;;;;;;5066324;28;46468;-66
2023/05/26 01:38:57;;;;;;;12.93;8.50;;;10.70;52.00;;;;;;5065073;28;46544;-66
2023/05/26 01:41:46;;;;;;;16.50;8.90;;;10.70;52.00;;;;;;5068271;28;45838;-65
2023/05/26 01:44:32;;;;;;;19.57;10.60;;;10.70;52.20;;;;;;5069400;28;46737;-67
2023/05/26 01:47:00;;;;;;;21.37;11.70;;;10.70;51.80;;;;;;5067068;28;46475;-65
2023/05/26 01:49:28;;;;;;;20.57;10.73;;;10.70;51.50;;;;;;5072369;28;47149;-67
2023/05/26 01:51:57;;;;;;;18.17;10.07;;;10.80;51.60;;;;;;5065828;27;46114;-66
2023/05/26 01:54:25;;;;;;;14.93;8.83;;;10.90;51.40;;;;;;5064134;28;46441;-65
2023/05/26 01:56:53;;;;;;;24.30;11.70;;;10.90;51.40;;;;;;5068899;28;46451;-66
2023/05/26 01:59:20;;;;;;;18.47;8.83;;;10.90;51.40;;;;;;5067882;28;47210;-66
2023/05/26 02:01:47;;;;;;;14.37;8.53;;;10.80;51.60;;;;;;5068480;28;46440;-66
2023/05/26 02:04:12;;;;;;;18.80;8.40;;;10.80;52.00;;;;;;5066652;28;46604;-66
2023/05/26 02:06:38;;;;;;;14.83;8.27;;;10.70;52.30;;;;;;5069280;28;46646;-65
2023/05/26 02:09:05;;;;;;;26.53;8.57;;;10.60;52.20;;;;;;5069124;28;46475;-65
2023/05/26 02:11:32;;;;;;;12.37;8.07;;;10.60;52.20;;;;;;5065201;28;46485;-65
2023/05/26 02:13:58;;;;;;;20.83;8.50;;;10.50;52.10;;;;;;5067011;28;46611;-65
2023/05/26 02:16:24;;;;;;;12.57;8.07;;;10.40;52.00;;;;;;5069113;28;45913;-65
2023/05/26 02:18:50;;;;;;;17.00;8.60;;;10.40;52.00;;;;;;5066099;28;46107;-65
2023/05/26 02:21:16;;;;;;;14.30;8.07;;;10.40;53.20;;;;;;5065830;28;46513;-65
2023/05/26 02:23:45;;;;;;;13.60;7.83;;;10.40;52.00;;;;;;5064792;28;46639;-67
2023/05/26 02:26:11;;;;;;;17.13;8.70;;;10.30;51.90;;;;;;5068498;28;46321;-65
2023/05/26 02:28:38;;;;;;;20.80;9.33;;;10.30;51.90;;;;;;5069002;27;46376;-67
2023/05/26 02:31:05;;;;;;;18.37;9.60;;;10.30;51.90;;;;;;5065469;28;46519;-67
2023/05/26 02:33:31;;;;;;;14.73;8.97;;;10.30;52.00;;;;;;5069028;27;46750;-68
2023/05/26 02:35:56;;;;;;;20.53;9.17;;;10.30;52.00;;;;;;5069445;27;46389;-67
2023/05/26 02:38:22;;;;;;;14.00;8.43;;;10.30;51.90;;;;;;5065732;28;46729;-65
2023/05/26 02:40:49;;;;;;;13.47;8.77;;;10.20;51.80;;;;;;5066756;28;46626;-66
2023/05/26 02:43:15;;;;;;;14.43;8.70;;;10.10;52.60;;;;;;5068918;28;46403;-66
2023/05/26 02:45:41;;;;;;;13.73;8.30;;;10.10;52.90;;;;;;5063177;28;46610;-66
2023/05/26 02:48:07;;;;;;;14.03;9.50;;;10.00;52.90;;;;;;5066261;27;48211;-65
2023/05/26 02:50:32;;;;;;;24.07;9.43;;;10.00;53.00;;;;;;5066228;28;46214;-65
2023/05/26 02:52:58;;;;;;;11.60;8.20;;;10.00;53.30;;;;;;5065585;28;46586;-66
2023/05/26 02:55:24;;;;;;;21.20;9.80;;;9.90;54.50;;;;;;5068105;28;46494;-66
2023/05/26 02:57:51;;;;;;;12.73;8.07;;;9.80;54.70;;;;;;5058850;28;46408;-66
2023/05/26 03:00:17;;;;;;;16.43;8.37;;;9.70;54.90;;;;;;5066052;27;46495;-65
2023/05/26 03:02:43;;;;;;;16.13;8.80;;;9.70;55.10;;;;;;5068552;28;45880;-65
2023/05/26 03:05:09;;;;;;;13.70;9.20;;;9.60;55.30;;;;;;5064907;28;46110;-65
2023/05/26 03:07:35;;;;;;;18.90;10.33;;;9.50;55.50;;;;;;5063438;28;46349;-65
2023/05/26 03:10:00;;;;;;;16.37;8.53;;;9.40;55.70;;;;;;5067812;28;46454;-65
2023/05/26 03:12:26;;;;;;;18.97;10.63;;;9.30;55.80;;;;;;5073835;28;46385;-66
2023/05/26 03:14:53;;;;;;;16.70;10.00;;;9.30;55.90;;;;;;5068889;27;46400;-65
2023/05/26 03:17:18;;;;;;;17.23;10.23;;;9.30;56.00;;;;;;5066902;28;46710;-66
2023/05/26 03:19:45;;;;;;;15.73;10.03;;;9.30;55.60;;;;;;5067277;28;46344;-65
2023/05/26 03:22:11;;;;;;;17.37;9.37;;;9.40;55.50;;;;;;5065814;28;46318;-66
2023/05/26 03:24:37;;;;;;;23.13;9.70;;;9.40;55.50;;;;;;5066588;28;46186;-65
2023/05/26 03:27:03;;;;;;;21.90;11.33;;;9.40;55.30;;;;;;5067812;28;46450;-67
2023/05/26 03:29:30;;;;;;;15.27;10.07;;;9.50;55.30;;;;;;5067456;28;46372;-66
2023/05/26 03:31:56;;;;;;;12.93;8.87;;;9.50;55.20;;;;;;5067469;28;46369;-67
2023/05/26 03:34:23;;;;;;;15.13;9.50;;;9.60;55.10;;;;;;5064911;28;46563;-65
2023/05/26 03:36:49;;;;;;;20.50;9.50;;;9.70;55.10;;;;;;5066237;28;46666;-66
2023/05/26 03:39:16;;;;;;;16.60;9.40;;;9.80;54.80;;;;;;5072156;28;46336;-65
2023/05/26 03:41:41;;;;;;;20.33;9.40;;;9.80;54.50;;;;;;5064934;28;46369;-65
2023/05/26 03:44:08;;;;;;;21.50;10.23;;;9.90;54.40;;;;;;5068691;28;46495;-65
2023/05/26 03:46:33;;;;;;;15.47;10.13;;;10.00;53.30;;;;;;5062914;28;46211;-65
2023/05/26 03:48:59;;;;;;;16.70;9.07;;;10.10;53.00;;;;;;5064220;28;45790;-66
2023/05/26 03:51:26;;;;;;;16.70;9.00;;;10.20;52.70;;;;;;5066716;28;46420;-65
2023/05/26 03:53:51;;;;;;;15.93;9.73;;;10.30;52.50;;;;;;5067711;28;46390;-66
2023/05/26 03:56:17;;;;;;;12.97;9.50;;;10.40;52.30;;;;;;5065875;28;46452;-66
2023/05/26 03:58:42;;;;;;;15.03;10.07;;;10.40;52.00;;;;;;5067753;28;46491;-65
2023/05/26 04:01:09;;;;;;;13.07;8.43;;;10.50;52.20;;;;;;5066900;27;46438;-65
2023/05/26 04:03:34;;;;;;;14.03;8.87;;;10.60;52.20;;;;;;5066006;28;46495;-65
2023/05/26 04:06:00;;;;;;;12.13;8.13;;;10.70;52.30;;;;;;5064563;28;47305;-66
2023/05/26 04:08:26;;;;;;;13.13;8.57;;;10.80;52.40;;;;;;5065138;28;46458;-66
2023/05/26 04:10:52;;;;;;;14.13;8.63;;;10.90;52.50;;;;;;5067192;28;46639;-66
2023/05/26 04:13:18;;;;;;;11.30;7.87;;;11.00;52.60;;;;;;5064930;28;46732;-65
2023/05/26 04:15:43;;;;;;;13.80;8.70;;;11.10;52.70;;;;;;5066575;28;46509;-65
2023/05/26 04:18:10;;;;;;;13.20;8.30;;;11.10;52.70;;;;;;5067177;28;46342;-66
2023/05/26 04:20:36;;;;;;;13.60;7.83;;;11.30;52.30;;;;;;5066812;27;46597;-64
2023/05/26 04:23:01;;;;;;;17.33;7.70;;;11.40;52.10;;;;;;5066305;28;46600;-66
2023/05/26 04:25:27;;;;;;;12.03;7.77;;;11.50;51.70;;;;;;5067328;28;46346;-67
2023/05/26 04:27:56;;;;;;;13.13;8.20;;;11.70;51.30;;;;;;5070966;27;46305;-65
2023/05/26 04:30:23;;;;;;;17.90;9.07;;;11.90;50.80;;;;;;5065662;28;46413;-65
2023/05/26 04:32:49;;;;;;;13.77;8.03;;;12.10;50.10;;;;;;5064678;28;46337;-65
2023/05/26 04:35:15;;;;;;;16.47;7.70;;;12.40;49.40;;;;;;5069154;28;46935;-65
2023/05/26 04:37:42;;;;;;;20.50;8.43;;;12.60;48.70;;;;;;5067027;28;46393;-66
2023/05/26 04:40:09;;;;;;;18.20;8.20;;;12.80;48.20;;;;;;5065418;28;46435;-66
2023/05/26 04:42:38;;;;;;;18.10;7.70;;;12.90;47.80;;;;;;5066239;28;46488;-66
2023/05/26 04:45:05;;;;;;;17.03;7.43;;;13.10;47.40;;;;;;5065438;28;46333;-65
2023/05/26 04:47:34;;;;;;;12.93;7.60;;;13.30;47.00;;;;;;5066277;27;46322;-63
2023/05/26 04:50:01;;;;;;;10.80;7.00;;;13.50;46.60;;;;;;5068302;28;46385;-65
2023/05/26 04:52:28;;;;;;;12.70;7.20;;;13.80;46.20;;;;;;5070239;28;46740;-66
2023/05/26 04:54:54;;;;;;;10.23;6.70;;;14.30;45.20;;;;;;5067968;28;46695;-65
2023/05/26 04:57:19;;;;;;;15.37;7.03;;;14.70;44.40;;;;;;5066243;27;46534;-65
2023/05/26 04:59:46;;;;;;;10.57;6.50;;;14.80;43.80;;;;;;5062739;27;46247;-65
2023/05/26 05:02:12;;;;;;;11.03;7.60;;;15.20;43.20;;;;;;5068888;28;46382;-65
2023/05/26 05:04:38;;;;;;;15.17;6.17;;;16.10;42.10;;;;;;5068502;27;46468;-65
2023/05/26 05:07:03;;;;;;;13.40;7.00;;;17.40;38.80;;;;;;5067659;28;46433;-65
2023/05/26 05:09:29;;;;;;;10.97;7.00;;;18.20;37.40;;;;;;5070790;27;45830;-65
2023/05/26 05:11:54;;;;;;;11.90;6.87;;;19.10;35.40;;;;;;5069067;28;46299;-66
2023/05/26 05:14:20;;;;;;;13.63;6.87;;;19.50;33.60;;;;;;5072979;27;46536;-67
2023/05/26 05:16:46;;;;;;;14.90;7.40;;;19.60;32.20;;;;;;5066444;28;46397;-65
2023/05/26 05:19:13;;;;;;;10.27;5.80;;;19.90;32.00;;;;;;5068974;28;46369;-65
2023/05/26 05:21:39;;;;;;;12.97;6.80;;;20.40;30.70;;;;;;5067604;28;46477;-66
2023/05/26 05:24:05;;;;;;;10.97;5.83;;;20.80;30.00;;;;;;5067865;28;46952;-66
2023/05/26 05:26:30;;;;;;;12.70;6.50;;;21.70;28.10;;;;;;5065215;27;46305;-66
2023/05/26 05:28:56;;;;;;;12.63;6.00;;;21.90;26.70;;;;;;5069543;27;46519;-65
2023/05/26 05:31:21;;;;;;;11.57;7.20;;;22.40;25.90;;;;;;5067935;28;46713;-66
2023/05/26 05:33:47;;;;;;;12.20;6.20;;;23.10;24.60;;;;;;5068947;28;46431;-67
2023/05/26 05:36:12;;;;;;;12.90;6.70;;;23.00;23.10;;;;;;5067012;28;46372;-65
2023/05/26 05:38:38;;;;;;;14.60;6.97;;;22.60;22.50;;;;;;5068099;28;46394;-66
2023/05/26 05:41:04;;;;;;;14.20;7.43;;;23.20;21.20;;;;;;5069446;28;46425;-66
2023/05/26 05:43:29;;;;;;;15.63;7.53;;;23.40;20.60;;;;;;5068783;28;46371;-66
2023/05/26 05:45:55;;;;;;;14.40;7.60;;;23.70;19.60;;;;;;5065723;28;46524;-65
2023/05/26 05:48:21;;;;;;;15.20;7.10;;;24.40;18.20;;;;;;5070510;28;46343;-66
2023/05/26 05:50:46;;;;;;;12.60;7.10;;;24.50;17.50;;;;;;5067989;28;46633;-66
2023/05/26 05:53:12;;;;;;;12.33;7.13;;;24.30;16.90;;;;;;5070338;28;47126;-66
2023/05/26 05:55:37;;;;;;;11.90;6.60;;;24.10;17.10;;;;;;5058529;28;46626;-64
2023/05/26 05:58:03;;;;;;;11.80;6.47;;;24.30;16.80;;;;;;5067491;28;46393;-65
2023/05/26 06:00:29;;;;;;;11.97;7.50;;;23.20;19.10;;;;;;5066653;27;45770;-67
2023/05/26 06:02:55;;;;;;;16.00;7.93;;;21.70;22.30;;;;;;5062230;28;46469;-66
2023/05/26 06:05:21;;;;;;;17.37;6.70;;;20.60;24.90;;;;;;5060661;28;46421;-66
2023/05/26 06:07:46;;;;;;;10.90;6.67;;;19.80;25.60;;;;;;5065061;28;46437;-66
2023/05/26 06:10:12;;;;;;;15.03;7.23;;;19.50;26.80;;;;;;5065017;28;46715;-66
2023/05/26 06:12:37;;;;;;;12.53;6.77;;;19.50;27.20;;;;;;5061011;28;45914;-66
2023/05/26 06:15:03;;;;;;;12.13;6.93;;;19.70;26.30;;;;;;5065007;28;46459;-65
2023/05/26 06:17:29;;;;;;;12.50;6.70;;;19.50;26.20;;;;;;5069974;28;46364;-65
2023/05/26 06:19:54;;;;;;;16.70;7.30;;;19.10;25.80;;;;;;5067217;28;46661;-65
2023/05/26 06:22:20;;;;;;;10.07;6.77;;;18.80;26.00;;;;;;5064502;28;48723;-65
2023/05/26 06:24:46;;;;;;;12.50;7.03;;;18.90;25.50;;;;;;5065095;28;46482;-65
2023/05/26 06:27:12;;;;;;;11.97;7.00;;;19.00;24.40;;;;;;5067252;28;46353;-64
2023/05/26 06:29:38;;;;;;;13.43;7.10;;;18.70;24.10;;;;;;5065760;28;46508;-63
2023/05/26 06:32:04;;;;;;;13.77;7.50;;;18.60;24.00;;;;;;5064289;27;46322;-66
2023/05/26 06:34:30;;;;;;;17.10;7.67;;;18.60;23.70;;;;;;5064151;28;46440;-63
2023/05/26 06:36:56;;;;;;;16.47;8.40;;;18.70;23.30;;;;;;5065359;28;46440;-64
2023/05/26 06:39:24;;;;;;;14.80;7.57;;;18.60;23.20;;;;;;5069412;28;46433;-64
2023/05/26 06:41:50;;;;;;;16.20;8.50;;;18.50;23.30;;;;;;5063316;28;46365;-67
2023/05/26 06:44:16;;;;;;;18.70;7.83;;;18.50;22.90;;;;;;5068511;28;46385;-66
2023/05/26 06:46:42;;;;;;;12.30;8.10;;;18.90;22.30;;;;;;5066817;27;46698;-65
2023/05/26 06:49:08;;;;;;;17.30;8.57;;;19.00;22.20;;;;;;5063654;28;45908;-65
2023/05/26 06:51:34;;;;;;;13.40;8.20;;;19.10;21.90;;;;;;5067238;28;46791;-64
2023/05/26 06:54:00;;;;;;;14.70;7.77;;;19.10;21.80;;;;;;5067998;28;46333;-65
2023/05/26 06:56:26;;;;;;;17.77;7.80;;;19.30;22.00;;;;;;5068245;28;45859;-64
2023/05/26 06:58:52;;;;;;;15.60;8.40;;;19.30;21.90;;;;;;5067071;28;46645;-64
2023/05/26 07:01:19;;;;;;;14.37;8.73;;;19.20;21.90;;;;;;5066490;28;46522;-65
2023/05/26 07:03:45;;;;;;;13.73;8.00;;;19.10;21.80;;;;;;5066495;28;46449;-66
2023/05/26 07:06:11;;;;;;;12.73;7.90;;;19.00;22.20;;;;;;5065464;28;46639;-65
2023/05/26 07:08:37;;;;;;;13.33;7.87;;;19.00;22.50;;;;;;5065311;28;46524;-65
2023/05/26 07:11:03;;;;;;;15.27;7.70;;;19.30;21.90;;;;;;5064638;28;46504;-65
2023/05/26 07:13:29;;;;;;;13.80;8.23;;;19.40;22.00;;;;;;5065572;28;46536;-66
2023/05/26 07:15:55;;;;;;;18.13;8.93;;;19.50;22.10;;;;;;5062772;28;46520;-65
2023/05/26 07:18:21;;;;;;;14.70;8.87;;;19.60;22.10;;;;;;5069506;28;46560;-65
2023/05/26 07:20:47;;;;;;;17.50;9.03;;;19.50;22.10;;;;;;5069217;27;46364;-65
2023/05/26 07:23:13;;;;;;;14.07;8.90;;;19.50;22.10;;;;;;5067428;28;46337;-66
2023/05/26 07:25:39;;;;;;;13.90;8.33;;;19.40;22.60;;;;;;5066819;28;46457;-64
2023/05/26 07:28:05;;;;;;;14.47;8.60;;;19.40;23.10;;;;;;5066138;27;46471;-64
2023/05/26 07:30:30;;;;;;;19.40;7.97;;;19.60;22.70;;;;;;5065626;28;46367;-67
2023/05/26 07:32:56;;;;;;;17.90;8.93;;;19.90;22.40;;;;;;5068025;28;46397;-65
2023/05/26 07:35:22;;;;;;;32.67;8.07;;;19.80;22.30;;;;;;5060966;28;46530;-66
2023/05/26 07:37:48;;;;;;;15.60;8.80;;;19.90;22.40;;;;;;5065438;28;46575;-66
2023/05/26 07:40:14;;;;;;;17.00;8.03;;;19.90;22.40;;;;;;5063389;27;46579;-68
2023/05/26 07:42:39;;;;;;;15.73;8.30;;;20.00;22.40;;;;;;5063346;28;46411;-67
2023/05/26 07:45:06;;;;;;;15.33;8.73;;;19.80;22.30;;;;;;5064259;28;46866;-64
2023/05/26 07:47:33;;;;;;;16.73;9.27;;;19.80;22.30;;;;;;5065418;28;46388;-66
2023/05/26 07:49:59;;;;;;;15.60;8.60;;;19.90;22.40;;;;;;5064590;28;47218;-65
2023/05/26 07:52:25;;;;;;;14.23;8.60;;;19.80;22.40;;;;;;5063062;28;46335;-64
2023/05/26 07:54:51;;;;;;;16.23;8.60;;;19.70;23.80;;;;;;5069587;28;46639;-63
2023/05/26 07:57:16;;;;;;;23.10;9.97;;;19.80;22.90;;;;;;5064233;27;46546;-65
2023/05/26 07:59:42;;;;;;;13.80;8.80;;;20.10;22.50;;;;;;5066578;28;46594;-67
2023/05/26 08:02:10;;;;;;;18.80;8.90;;;20.30;22.00;;;;;;5064867;28;46461;-66
2023/05/26 08:04:35;;;;;;;18.27;8.90;;;20.40;22.30;;;;;;5066719;28;46518;-64
2023/05/26 08:07:01;;;;;;;16.60;9.23;;;20.50;22.00;;;;;;5064224;28;46452;-65
2023/05/26 08:09:27;;;;;;;18.40;10.00;;;20.50;22.00;;;;;;5067336;28;46678;-67
2023/05/26 08:11:52;;;;;;;19.37;10.23;;;20.60;22.00;;;;;;5066879;28;46393;-66
2023/05/26 08:14:19;;;;;;;28.27;9.47;;;20.70;22.00;;;;;;5066899;28;46595;-64
2023/05/26 08:16:45;;;;;;;18.87;9.87;;;20.90;21.80;;;;;;5066881;28;46418;-65
2023/05/26 08:19:10;;;;;;;15.60;9.47;;;21.20;21.30;;;;;;5065339;28;46619;-68
2023/05/26 08:21:36;;;;;;;20.63;9.00;;;21.10;21.20;;;;;;5064382;27;46369;-65
2023/05/26 08:24:02;;;;;;;14.80;9.07;;;21.10;21.40;;;;;;5065303;28;46464;-68
2023/05/26 08:26:28;;;;;;;15.97;8.93;;;21.20;21.30;;;;;;5061313;28;46745;-65
2023/05/26 08:28:54;;;;;;;16.03;9.63;;;21.30;21.40;;;;;;5067181;28;47358;-66
2023/05/26 08:31:19;;;;;;;19.90;9.93;;;21.00;21.90;;;;;;5065148;28;45873;-66
2023/05/26 08:33:45;;;;;;;17.93;10.80;;;20.90;21.90;;;;;;5064520;28;46346;-66
2023/05/26 08:36:11;;;;;;;17.97;10.83;;;21.10;21.70;;;;;;5063712;28;46337;-69
2023/05/26 08:38:36;;;;;;;18.23;9.50;;;21.20;21.30;;;;;;5070002;28;46407;-66
2023/05/26 08:41:05;;;;;;;16.07;8.80;;;21.30;21.40;;;;;;5073512;28;46662;-65
2023/05/26 08:43:54;;;;;;;17.80;9.47;;;21.50;21.10;;;;;;5070009;27;46451;-66
2023/05/26 08:46:22;;;;;;;23.50;8.70;;;21.80;20.50;;;;;;5068023;28;46373;-67
2023/05/26 08:48:48;;;;;;;17.27;9.23;;;21.80;20.50;;;;;;5070070;28;46378;-65
2023/05/26 08:51:14;;;;;;;18.80;9.27;;;21.50;20.60;;;;;;5069040;28;46473;-65
2023/05/26 08:53:40;;;;;;;19.37;9.97;;;21.30;21.10;;;;;;5068676;28;46500;-65
2023/05/26 08:56:07;;;;;;;15.90;9.63;;;21.60;20.80;;;;;;5069643;28;46719;-65
2023/05/26 08:58:34;;;;;;;17.97;9.60;;;21.80;21.00;;;;;;5067152;28;47248;-64
2023/05/26 09:01:01;;;;;;;19.60;10.60;;;22.00;20.70;;;;;;5069212;28;46274;-65
2023/05/26 09:03:27;;;;;;;17.33;10.23;;;21.60;20.10;;;;;;5069707;27;46504;-64
2023/05/26 09:05:53;;;;;;;15.93;9.60;;;21.60;20.30;;;;;;5062892;27;46588;-66
2023/05/26 09:08:18;;;;;;;22.83;11.07;;;21.60;20.30;;;;;;5069915;28;46393;-67
2023/05/26 09:10:44;;;;;;;19.07;9.70;;;21.80;20.00;;;;;;5066414;28;45999;-64
2023/05/26 09:13:13;;;;;;;16.00;8.77;;;22.20;19.50;;;;;;5066814;28;46439;-65
2023/05/26 09:15:39;;;;;;;17.93;10.40;;;22.20;19.70;;;;;;5068177;28;46835;-67
2023/05/26 09:18:13;;;;;;;17.40;10.30;;;22.40;19.40;;;;;;5064908;28;47203;-67
2023/05/26 09:20:40;;;;;;;15.63;9.60;;;22.50;19.00;;;;;;5069077;28;46395;-65
2023/05/26 09:23:06;;;;;;;17.17;10.00;;;22.70;18.70;;;;;;5069150;28;46724;-66
2023/05/26 09:25:42;;;;;;;20.73;9.93;;;22.40;18.60;;;;;;5065171;28;46534;-64
2023/05/26 09:28:10;;;;;;;20.60;9.87;;;22.20;19.30;;;;;;5069484;28;46979;-64
2023/05/26 09:30:41;;;;;;;18.80;9.83;;;22.10;19.20;;;;;;5068782;27;46741;-64
2023/05/26 09:33:09;;;;;;;14.30;8.77;;;22.20;19.10;;;;;;5065762;28;46464;-64
2023/05/26 09:35:39;;;;;;;19.10;9.63;;;22.40;19.00;;;;;;5066407;28;45861;-65
2023/05/26 09:38:08;;;;;;;13.03;8.80;;;22.50;18.70;;;;;;5072870;28;46455;-64
2023/05/26 09:40:34;;;;;;;15.17;8.73;;;22.70;18.70;;;;;;5068642;27;46430;-67
2023/05/26 09:43:02;;;;;;;18.93;8.70;;;22.60;17.70;;;;;;5058794;28;46711;-67
2023/05/26 09:45:35;;;;;;;16.27;9.23;;;22.40;18.30;;;;;;5064153;27;46792;-63
2023/05/26 09:48:03;;;;;;;14.50;7.90;;;22.30;18.10;;;;;;5066972;27;47246;-62
2023/05/26 09:50:33;;;;;;;16.87;8.60;;;22.50;17.60;;;;;;5066344;28;46426;-63
2023/05/26 09:53:04;;;;;;;15.30;7.83;;;22.40;17.30;;;;;;5066792;28;46406;-64
2023/05/26 09:55:30;;;;;;;16.93;8.33;;;22.30;17.50;;;;;;5070375;28;46445;-63
2023/05/26 09:58:05;;;;;;;15.77;10.13;;;22.60;17.20;;;;;;5066980;28;46571;-63
2023/05/26 10:00:32;;;;;;;16.93;8.63;;;22.70;17.10;;;;;;5067213;28;46405;-64
2023/05/26 10:02:59;;;;;;;13.33;7.60;;;22.70;17.50;;;;;;5071379;28;46394;-63
2023/05/26 10:05:25;;;;;;;13.63;8.00;;;22.60;17.40;;;;;;5067683;28;45944;-63
2023/05/26 10:07:52;;;;;;;16.80;9.10;;;22.60;17.20;;;;;;5067417;28;47357;-64
2023/05/26 10:10:18;;;;;;;16.60;9.40;;;22.60;16.90;;;;;;5071084;28;46358;-63
2023/05/26 10:12:45;;;;;;;14.67;9.23;;;22.50;16.90;;;;;;5073810;28;45952;-63
2023/05/26 10:15:11;;;;;;;17.50;10.00;;;22.80;16.60;;;;;;5067263;28;46689;-62
2023/05/26 10:17:38;;;;;;;22.80;8.90;;;22.80;16.70;;;;;;5074229;28;47062;-64
2023/05/26 10:20:04;;;;;;;15.87;9.07;;;23.00;16.60;;;;;;5070158;28;46452;-64
2023/05/26 10:22:54;;;;;;;13.73;9.00;;;23.00;16.50;;;;;;5066675;28;46447;-63
2023/05/26 10:25:53;;;;;;;16.30;7.50;;;23.00;16.30;;;;;;5067900;28;46447;-65
2023/05/26 10:28:22;;;;;;;18.27;9.67;;;23.30;16.40;;;;;;5066419;28;46642;-62
2023/05/26 10:30:48;;;;;;;17.90;9.47;;;23.60;16.10;;;;;;5063642;28;46588;-64
2023/05/26 10:33:15;;;;;;;15.80;7.27;;;23.60;15.80;;;;;;5063009;28;46560;-63
2023/05/26 10:35:55;;;;;;;17.70;6.87;;;23.40;15.40;;;;;;5059440;28;46857;-62
2023/05/26 10:38:35;;;;;;;13.67;7.00;;;23.40;15.50;;;;;;5063493;28;46471;-63
2023/05/26 10:41:00;;;;;;;14.00;7.20;;;23.60;14.80;;;;;;5065458;28;45839;-63
2023/05/26 10:43:27;;;;;;;14.07;7.47;;;24.00;14.20;;;;;;5064199;28;46619;-63
2023/05/26 10:45:59;;;;;;;15.70;6.83;;;24.40;13.60;;;;;;5062890;28;46390;-63
2023/05/26 10:48:37;;;;;;;13.40;6.20;;;24.50;13.10;;;;;;5068761;28;47240;-62
2023/05/26 10:51:04;;;;;;;12.93;7.10;;;24.60;12.20;;;;;;5067869;28;46521;-62
2023/05/26 10:53:42;;;;;;;17.77;7.80;;;24.60;10.50;;;;;;5064937;28;46686;-63
2023/05/26 10:56:12;;;;;;;12.70;5.67;;;24.80;11.30;;;;;;5065294;28;46527;-64
2023/05/26 10:58:40;;;;;;;19.73;6.80;;;25.10;10.30;;;;;;5063477;27;48230;-64
2023/05/26 11:01:20;;;;;;;13.57;6.20;;;25.20;10.10;;;;;;5065290;28;46967;-64
2023/05/26 11:04:16;;;;;;;11.50;6.77;;;25.40;10.10;;;;;;5067046;28;46453;-63
2023/05/26 11:06:50;;;;;;;11.90;7.20;;;25.30;10.30;;;;;;5064952;28;46664;-63
2023/05/26 11:09:20;;;;;;;16.13;7.63;;;25.30;10.60;;;;;;5061950;28;47975;-64
2023/05/26 11:11:50;;;;;;;12.50;7.07;;;25.80;10.30;;;;;;5067242;28;46911;-65
2023/05/26 11:14:25;;;;;;;15.90;7.60;;;26.40;9.70;;;;;;5063166;27;45810;-64
2023/05/26 11:16:51;;;;;;;16.40;7.50;;;26.50;9.00;;;;;;5065774;28;46390;-64
2023/05/26 11:19:36;;;;;;;16.67;7.50;;;26.20;9.20;;;;;;5064746;28;46428;-65
2023/05/26 11:22:08;;;;;;;14.43;7.80;;;26.00;8.90;;;;;;5064117;28;46657;-64
2023/05/26 11:24:35;;;;;;;12.80;7.67;;;26.00;9.50;;;;;;5066675;28;46501;-64
2023/05/26 11:27:02;;;;;;;13.87;8.30;;;26.10;9.50;;;;;;5063432;28;46699;-64
2023/05/26 11:29:28;;;;;;;16.80;6.80;;;26.00;9.40;;;;;;5065863;28;47303;-63
2023/05/26 11:31:54;;;;;;;15.40;8.30;;;25.60;9.10;;;;;;5067269;28;45816;-63
2023/05/26 11:34:21;;;;;;;13.87;7.90;;;25.30;9.90;;;;;;5067516;27;46428;-64
2023/05/26 11:36:48;;;;;;;14.97;8.50;;;24.80;10.50;;;;;;5064962;28;46484;-63
2023/05/26 11:39:15;;;;;;;17.97;8.93;;;24.40;12.00;;;;;;5057546;28;46602;-63
2023/05/26 11:41:41;;;;;;;13.80;8.30;;;24.00;11.70;;;;;;5061654;28;46436;-64
2023/05/26 11:44:08;;;;;;;13.10;7.63;;;23.90;12.00;;;;;;5064429;28;46391;-64
2023/05/26 11:46:37;;;;;;;19.27;8.10;;;23.80;12.40;;;;;;5062008;28;46471;-65
2023/05/26 11:49:03;;;;;;;19.00;6.97;;;23.90;12.00;;;;;;5065740;28;46878;-64
2023/05/26 11:51:31;;;;;;;23.67;7.23;;;24.40;11.70;;;;;;5063306;28;46474;-65
2023/05/26 11:53:58;;;;;;;16.97;7.90;;;24.60;11.40;;;;;;5064911;28;46627;-63
2023/05/26 11:56:35;;;;;;;11.57;7.30;;;24.50;11.20;;;;;;5064375;28;46356;-66
2023/05/26 11:59:01;;;;;;;16.13;7.23;;;24.30;11.30;;;;;;5062094;28;46460;-65
2023/05/26 12:01:27;;;;;;;15.43;7.90;;;24.10;11.50;;;;;;5064726;28;46480;-64
2023/05/26 12:03:55;;;;;;;14.17;7.27;;;24.10;11.50;;;;;;5064205;28;46389;-64
2023/05/26 12:06:23;;;;;;;16.30;7.00;;;24.30;11.10;;;;;;5063169;28;46567;-64
2023/05/26 12:08:52;;;;;;;14.60;7.00;;;24.70;10.50;;;;;;5061641;27;47034;-64
2023/05/26 12:11:21;;;;;;;15.47;6.97;;;24.90;10.10;;;;;;5063124;27;46415;-63
2023/05/26 12:13:57;;;;;;;13.87;7.17;;;25.10;9.80;;;;;;5065486;28;46006;-65
2023/05/26 12:16:24;;;;;;;19.53;7.77;;;25.20;9.40;;;;;;5062550;27;46462;-64
2023/05/26 12:18:54;;;;;;;16.10;6.83;;;25.20;8.90;;;;;;5062765;28;48972;-64
2023/05/26 12:21:21;;;;;;;16.90;7.10;;;25.30;8.90;;;;;;5065304;28;46896;-63
2023/05/26 12:23:47;;;;;;;12.00;6.83;;;25.30;9.10;;;;;;5067212;28;45897;-64
2023/05/26 12:26:17;;;;;;;11.30;5.87;;;25.80;8.60;;;;;;5062831;28;46391;-64
2023/05/26 12:28:43;;;;;;;12.10;6.87;;;26.20;8.00;;;;;;5063626;28;46318;-64
2023/05/26 12:31:10;;;;;;;16.70;6.90;;;26.20;7.50;;;;;;5065239;28;46534;-64
2023/05/26 12:33:36;;;;;;;11.13;6.47;;;26.40;7.60;;;;;;5063520;27;46794;-64
2023/05/26 12:36:01;;;;;;;12.70;6.50;;;26.30;7.20;;;;;;5063828;28;46435;-65
2023/05/26 12:38:28;;;;;;;12.33;6.23;;;26.20;7.30;;;;;;5063368;28;46385;-63